sensor_id;sensor_type;location;lat;lon;timestamp;pressure;altitude;pressure_sealevel;temperature;humidity
50632;BME280;49583;45.590;-122.498;2024-03-02T00:02:04;99430.70;;;7.28;70.33
50632;BME280;49583;45.590;-122.498;2024-03-02T00:04:17;99426.04;;;7.19;70.28
50632;BME280;49583;45.590;-122.498;2024-03-02T00:06:30;99430.70;;;7.14;70.78
50632;BME280;49583;45.590;-122.498;2024-03-02T00:08:43;99432.95;;;7.13;70.96
50632;BME280;49583;45.590;-122.498;2024-03-02T00:11:00;99426.27;;;7.09;70.89
50632;BME280;49583;45.590;-122.498;2024-03-02T00:13:25;99418.29;;;7.05;70.81
50632;BME280;49583;45.590;-122.498;2024-03-02T00:15:58;99415.42;;;7.01;71.02
50632;BME280;49583;45.590;-122.498;2024-03-02T00:18:12;99410.45;;;6.96;71.04
50632;BME280;49583;45.590;-122.498;2024-03-02T00:20:35;99415.59;;;6.97;71.12
50632;BME280;49583;45.590;-122.498;2024-03-02T00:22:50;99401.77;;;6.92;70.95
50632;BME280;49583;45.590;-122.498;2024-03-02T00:25:23;99395.98;;;6.95;70.91
50632;BME280;49583;45.590;-122.498;2024-03-02T00:27:36;99383.17;;;6.92;69.96
50632;BME280;49583;45.590;-122.498;2024-03-02T00:30:40;99370.13;;;6.88;69.58
50632;BME280;49583;45.590;-122.498;2024-03-02T00:33:02;99352.13;;;6.85;69.77
50632;BME280;49583;45.590;-122.498;2024-03-02T00:35:39;99330.88;;;6.84;69.84
50632;BME280;49583;45.590;-122.498;2024-03-02T00:38:08;99317.59;;;6.84;69.84
50632;BME280;49583;45.590;-122.498;2024-03-02T00:40:21;99303.53;;;6.85;70.07
50632;BME280;49583;45.590;-122.498;2024-03-02T00:42:34;99293.54;;;6.86;70.20
50632;BME280;49583;45.590;-122.498;2024-03-02T00:45:10;99279.65;;;6.88;70.08
50632;BME280;49583;45.590;-122.498;2024-03-02T00:47:43;99259.98;;;6.88;69.70
50632;BME280;49583;45.590;-122.498;2024-03-02T00:50:15;99246.54;;;6.88;69.81
50632;BME280;49583;45.590;-122.498;2024-03-02T00:52:49;99230.35;;;6.89;70.08
50632;BME280;49583;45.590;-122.498;2024-03-02T00:55:05;99216.94;;;6.92;70.20
50632;BME280;49583;45.590;-122.498;2024-03-02T00:57:38;99219.40;;;6.94;70.22
50632;BME280;49583;45.590;-122.498;2024-03-02T00:59:51;99223.91;;;6.95;70.12
50632;BME280;49583;45.590;-122.498;2024-03-02T01:02:04;99218.57;;;6.97;70.30
50632;BME280;49583;45.590;-122.498;2024-03-02T01:04:27;99216.84;;;6.98;70.15
50632;BME280;49583;45.590;-122.498;2024-03-02T01:07:00;99202.55;;;6.97;70.09
50632;BME280;49583;45.590;-122.498;2024-03-02T01:09:15;99187.46;;;6.99;70.15
50632;BME280;49583;45.590;-122.498;2024-03-02T01:11:49;99175.24;;;6.97;70.40
50632;BME280;49583;45.590;-122.498;2024-03-02T01:14:07;99174.71;;;6.98;70.13
50632;BME280;49583;45.590;-122.498;2024-03-02T01:16:31;99164.04;;;6.95;70.34
50632;BME280;49583;45.590;-122.498;2024-03-02T01:19:04;99153.98;;;6.93;70.51
50632;BME280;49583;45.590;-122.498;2024-03-02T01:21:20;99135.58;;;6.88;70.67
50632;BME280;49583;45.590;-122.498;2024-03-02T01:23:43;99119.61;;;6.85;70.54
50632;BME280;49583;45.590;-122.498;2024-03-02T01:26:05;99107.34;;;6.79;70.82
50632;BME280;49583;45.590;-122.498;2024-03-02T01:28:18;99102.98;;;6.73;71.00
50632;BME280;49583;45.590;-122.498;2024-03-02T01:30:30;99098.41;;;6.68;71.00
50632;BME280;49583;45.590;-122.498;2024-03-02T01:32:46;99093.19;;;6.65;71.24
50632;BME280;49583;45.590;-122.498;2024-03-02T01:34:59;99092.65;;;6.60;71.29
50632;BME280;49583;45.590;-122.498;2024-03-02T01:37:12;99082.80;;;6.54;71.19
50632;BME280;49583;45.590;-122.498;2024-03-02T01:39:25;99070.55;;;6.48;71.25
50632;BME280;49583;45.590;-122.498;2024-03-02T01:41:37;99059.59;;;6.42;71.26
50632;BME280;49583;45.590;-122.498;2024-03-02T01:43:50;99053.96;;;6.39;71.18
50632;BME280;49583;45.590;-122.498;2024-03-02T01:46:02;99057.02;;;6.35;71.16
50632;BME280;49583;45.590;-122.498;2024-03-02T01:48:29;99058.64;;;6.29;71.31
50632;BME280;49583;45.590;-122.498;2024-03-02T01:50:51;99060.02;;;6.27;71.37
50632;BME280;49583;45.590;-122.498;2024-03-02T01:53:25;99060.21;;;6.24;71.42
50632;BME280;49583;45.590;-122.498;2024-03-02T01:55:38;99049.84;;;6.21;71.54
50632;BME280;49583;45.590;-122.498;2024-03-02T01:58:11;99038.48;;;6.17;71.57
50632;BME280;49583;45.590;-122.498;2024-03-02T02:00:44;99031.95;;;6.13;71.60
50632;BME280;49583;45.590;-122.498;2024-03-02T02:03:00;99033.79;;;6.09;71.32
50632;BME280;49583;45.590;-122.498;2024-03-02T02:05:33;99024.02;;;6.05;71.17
50632;BME280;49583;45.590;-122.498;2024-03-02T02:08:07;99017.19;;;6.05;71.46
50632;BME280;49583;45.590;-122.498;2024-03-02T02:10:20;99014.06;;;6.03;71.61
50632;BME280;49583;45.590;-122.498;2024-03-02T02:12:33;99002.77;;;6.00;71.44
50632;BME280;49583;45.590;-122.498;2024-03-02T02:14:51;98993.48;;;5.96;71.54
50632;BME280;49583;45.590;-122.498;2024-03-02T02:17:04;98988.94;;;5.93;71.65
50632;BME280;49583;45.590;-122.498;2024-03-02T02:19:17;98986.27;;;5.92;71.66
50632;BME280;49583;45.590;-122.498;2024-03-02T02:21:29;98995.71;;;5.89;71.67
50632;BME280;49583;45.590;-122.498;2024-03-02T02:24:02;98999.23;;;5.87;72.03
50632;BME280;49583;45.590;-122.498;2024-03-02T02:26:18;98998.59;;;5.85;71.84
50632;BME280;49583;45.590;-122.498;2024-03-02T02:28:31;98997.05;;;5.80;72.06
50632;BME280;49583;45.590;-122.498;2024-03-02T02:30:47;98989.50;;;5.73;72.00
50632;BME280;49583;45.590;-122.498;2024-03-02T02:33:04;98984.35;;;5.65;72.16
50632;BME280;49583;45.590;-122.498;2024-03-02T02:35:20;98981.54;;;5.63;72.41
50632;BME280;49583;45.590;-122.498;2024-03-02T02:37:35;98985.80;;;5.59;72.31
50632;BME280;49583;45.590;-122.498;2024-03-02T02:39:50;98984.36;;;5.54;72.32
50632;BME280;49583;45.590;-122.498;2024-03-02T02:42:03;98969.72;;;5.51;72.42
50632;BME280;49583;45.590;-122.498;2024-03-02T02:44:20;98956.52;;;5.48;72.81
50632;BME280;49583;45.590;-122.498;2024-03-02T02:46:33;98956.36;;;5.44;72.93
50632;BME280;49583;45.590;-122.498;2024-03-02T02:49:06;98961.96;;;5.39;73.00
50632;BME280;49583;45.590;-122.498;2024-03-02T02:51:22;98961.14;;;5.36;73.02
50632;BME280;49583;45.590;-122.498;2024-03-02T02:53:35;98954.14;;;5.34;73.21
50632;BME280;49583;45.590;-122.498;2024-03-02T02:55:50;98956.29;;;5.33;73.49
50632;BME280;49583;45.590;-122.498;2024-03-02T02:58:23;98962.62;;;5.31;73.60
50632;BME280;49583;45.590;-122.498;2024-03-02T03:00:36;98964.53;;;5.30;73.25
50632;BME280;49583;45.590;-122.498;2024-03-02T03:03:09;98969.00;;;5.28;73.75
50632;BME280;49583;45.590;-122.498;2024-03-02T03:05:22;98954.40;;;5.27;73.87
50632;BME280;49583;45.590;-122.498;2024-03-02T03:07:44;98942.85;;;5.27;74.06
50632;BME280;49583;45.590;-122.498;2024-03-02T03:09:58;98929.81;;;5.27;73.61
50632;BME280;49583;45.590;-122.498;2024-03-02T03:12:12;98924.95;;;5.28;73.30
50632;BME280;49583;45.590;-122.498;2024-03-02T03:14:35;98924.02;;;5.32;72.75
50632;BME280;49583;45.590;-122.498;2024-03-02T03:16:51;98910.42;;;5.37;72.27
50632;BME280;49583;45.590;-122.498;2024-03-02T03:19:03;98883.11;;;5.41;71.69
50632;BME280;49583;45.590;-122.498;2024-03-02T03:21:38;98872.96;;;5.47;71.41
50632;BME280;49583;45.590;-122.498;2024-03-02T03:23:50;98875.34;;;5.53;71.27
50632;BME280;49583;45.590;-122.498;2024-03-02T03:26:24;98877.52;;;5.58;70.91
50632;BME280;49583;45.590;-122.498;2024-03-02T03:28:56;98887.32;;;5.61;70.92
50632;BME280;49583;45.590;-122.498;2024-03-02T03:31:20;98874.70;;;5.63;70.96
50632;BME280;49583;45.590;-122.498;2024-03-02T03:33:43;98852.97;;;5.63;70.80
50632;BME280;49583;45.590;-122.498;2024-03-02T03:35:55;98838.35;;;5.60;70.28
50632;BME280;49583;45.590;-122.498;2024-03-02T03:38:08;98826.19;;;5.61;70.21
50632;BME280;49583;45.590;-122.498;2024-03-02T03:40:22;98813.30;;;5.60;70.30
50632;BME280;49583;45.590;-122.498;2024-03-02T03:42:34;98812.98;;;5.60;70.44
50632;BME280;49583;45.590;-122.498;2024-03-02T03:44:47;98808.03;;;5.61;70.25
50632;BME280;49583;45.590;-122.498;2024-03-02T03:46:59;98817.20;;;5.62;69.96
50632;BME280;49583;45.590;-122.498;2024-03-02T03:49:14;98812.34;;;5.64;69.97
50632;BME280;49583;45.590;-122.498;2024-03-02T03:51:27;98823.98;;;5.66;69.22
50632;BME280;49583;45.590;-122.498;2024-03-02T03:53:41;98815.23;;;5.68;68.40
50632;BME280;49583;45.590;-122.498;2024-03-02T03:55:53;98801.65;;;5.72;68.40
50632;BME280;49583;45.590;-122.498;2024-03-02T03:58:06;98810.20;;;5.75;67.92
50632;BME280;49583;45.590;-122.498;2024-03-02T04:00:32;98806.19;;;5.76;67.63
50632;BME280;49583;45.590;-122.498;2024-03-02T04:02:47;98808.63;;;5.81;67.82
50632;BME280;49583;45.590;-122.498;2024-03-02T04:05:22;98809.41;;;5.82;67.84
50632;BME280;49583;45.590;-122.498;2024-03-02T04:07:38;98805.95;;;5.84;67.57
50632;BME280;49583;45.590;-122.498;2024-03-02T04:09:53;98797.88;;;5.84;67.70
50632;BME280;49583;45.590;-122.498;2024-03-02T04:12:07;98785.77;;;5.84;67.51
50632;BME280;49583;45.590;-122.498;2024-03-02T04:14:39;98777.46;;;5.84;67.77
50632;BME280;49583;45.590;-122.498;2024-03-02T04:17:04;98760.63;;;5.84;67.66
50632;BME280;49583;45.590;-122.498;2024-03-02T04:19:26;98771.71;;;5.84;67.58
50632;BME280;49583;45.590;-122.498;2024-03-02T04:21:39;98777.77;;;5.82;67.32
50632;BME280;49583;45.590;-122.498;2024-03-02T04:24:11;98765.43;;;5.75;66.69
50632;BME280;49583;45.590;-122.498;2024-03-02T04:26:25;98763.67;;;5.71;66.66
50632;BME280;49583;45.590;-122.498;2024-03-02T04:28:41;98755.56;;;5.65;67.22
50632;BME280;49583;45.590;-122.498;2024-03-02T04:30:53;98757.30;;;5.61;67.28
50632;BME280;49583;45.590;-122.498;2024-03-02T04:33:06;98745.77;;;5.56;67.70
50632;BME280;49583;45.590;-122.498;2024-03-02T04:35:30;98743.52;;;5.50;67.38
50632;BME280;49583;45.590;-122.498;2024-03-02T04:37:42;98736.95;;;5.44;67.45
50632;BME280;49583;45.590;-122.498;2024-03-02T04:39:55;98732.88;;;5.39;67.82
50632;BME280;49583;45.590;-122.498;2024-03-02T04:42:08;98734.52;;;5.35;68.23
50632;BME280;49583;45.590;-122.498;2024-03-02T04:44:21;98733.86;;;5.31;67.90
50632;BME280;49583;45.590;-122.498;2024-03-02T04:46:36;98728.61;;;5.27;68.18
50632;BME280;49583;45.590;-122.498;2024-03-02T04:48:49;98729.14;;;5.23;68.06
50632;BME280;49583;45.590;-122.498;2024-03-02T04:51:26;98728.77;;;5.20;68.43
50632;BME280;49583;45.590;-122.498;2024-03-02T04:53:39;98736.05;;;5.18;68.71
50632;BME280;49583;45.590;-122.498;2024-03-02T04:55:51;98741.46;;;5.17;68.49
50632;BME280;49583;45.590;-122.498;2024-03-02T04:58:37;98733.13;;;5.14;68.60
50632;BME280;49583;45.590;-122.498;2024-03-02T05:00:50;98725.97;;;5.13;68.87
50632;BME280;49583;45.590;-122.498;2024-03-02T05:03:07;98721.93;;;5.12;68.97
50632;BME280;49583;45.590;-122.498;2024-03-02T05:05:28;98717.98;;;5.11;69.14
50632;BME280;49583;45.590;-122.498;2024-03-02T05:07:42;98711.45;;;5.10;68.84
50632;BME280;49583;45.590;-122.498;2024-03-02T05:09:57;98714.16;;;5.09;69.21
50632;BME280;49583;45.590;-122.498;2024-03-02T05:12:15;98721.13;;;5.08;69.34
50632;BME280;49583;45.590;-122.498;2024-03-02T05:14:57;98743.75;;;5.08;69.32
50632;BME280;49583;45.590;-122.498;2024-03-02T05:17:10;98760.43;;;5.09;69.21
50632;BME280;49583;45.590;-122.498;2024-03-02T05:19:43;98767.89;;;5.10;69.78
50632;BME280;49583;45.590;-122.498;2024-03-02T05:22:09;98771.84;;;5.12;69.69
50632;BME280;49583;45.590;-122.498;2024-03-02T05:24:34;98776.06;;;5.14;70.23
50632;BME280;49583;45.590;-122.498;2024-03-02T05:26:47;98780.52;;;5.15;69.99
50632;BME280;49583;45.590;-122.498;2024-03-02T05:29:00;98784.70;;;5.16;70.10
50632;BME280;49583;45.590;-122.498;2024-03-02T05:31:17;98781.14;;;5.16;70.24
50632;BME280;49583;45.590;-122.498;2024-03-02T05:33:30;98782.09;;;5.17;70.32
50632;BME280;49583;45.590;-122.498;2024-03-02T05:35:54;98790.23;;;5.17;70.44
50632;BME280;49583;45.590;-122.498;2024-03-02T05:38:07;98802.73;;;5.18;70.46
50632;BME280;49583;45.590;-122.498;2024-03-02T05:40:20;98818.63;;;5.19;70.40
50632;BME280;49583;45.590;-122.498;2024-03-02T05:42:53;98826.00;;;5.19;70.46
50632;BME280;49583;45.590;-122.498;2024-03-02T05:45:07;98837.69;;;5.20;70.36
50632;BME280;49583;45.590;-122.498;2024-03-02T05:47:20;98844.05;;;5.20;70.42
50632;BME280;49583;45.590;-122.498;2024-03-02T05:49:33;98847.66;;;5.23;70.22
50632;BME280;49583;45.590;-122.498;2024-03-02T05:51:56;98853.67;;;5.25;70.48
50632;BME280;49583;45.590;-122.498;2024-03-02T05:54:28;98857.80;;;5.28;70.41
50632;BME280;49583;45.590;-122.498;2024-03-02T05:56:51;98865.02;;;5.28;70.64
50632;BME280;49583;45.590;-122.498;2024-03-02T05:59:14;98863.73;;;5.29;71.10
50632;BME280;49583;45.590;-122.498;2024-03-02T06:01:38;98863.06;;;5.26;71.23
50632;BME280;49583;45.590;-122.498;2024-03-02T06:03:51;98853.81;;;5.24;71.71
50632;BME280;49583;45.590;-122.498;2024-03-02T06:06:04;98854.87;;;5.23;71.90
50632;BME280;49583;45.590;-122.498;2024-03-02T06:08:20;98864.28;;;5.20;72.15
50632;BME280;49583;45.590;-122.498;2024-03-02T06:10:33;98856.40;;;5.16;72.27
50632;BME280;49583;45.590;-122.498;2024-03-02T06:13:03;98862.16;;;5.11;72.30
50632;BME280;49583;45.590;-122.498;2024-03-02T06:15:16;98856.30;;;5.08;72.61
50632;BME280;49583;45.590;-122.498;2024-03-02T06:17:49;98845.80;;;5.06;73.14
50632;BME280;49583;45.590;-122.498;2024-03-02T06:20:21;98850.46;;;5.00;73.06
50632;BME280;49583;45.590;-122.498;2024-03-02T06:22:34;98851.52;;;4.98;73.28
50632;BME280;49583;45.590;-122.498;2024-03-02T06:24:46;98853.81;;;4.97;73.66
50632;BME280;49583;45.590;-122.498;2024-03-02T06:27:19;98855.67;;;4.95;73.67
50632;BME280;49583;45.590;-122.498;2024-03-02T06:29:52;98853.61;;;4.92;73.74
50632;BME280;49583;45.590;-122.498;2024-03-02T06:32:15;98854.80;;;4.91;74.14
50632;BME280;49583;45.590;-122.498;2024-03-02T06:34:37;98858.39;;;4.86;73.98
50632;BME280;49583;45.590;-122.498;2024-03-02T06:36:49;98854.10;;;4.80;74.14
50632;BME280;49583;45.590;-122.498;2024-03-02T06:39:12;98860.33;;;4.75;74.63
50632;BME280;49583;45.590;-122.498;2024-03-02T06:41:28;98872.34;;;4.76;74.69
50632;BME280;49583;45.590;-122.498;2024-03-02T06:43:44;98873.16;;;4.75;74.86
50632;BME280;49583;45.590;-122.498;2024-03-02T06:45:57;98874.67;;;4.72;74.80
50632;BME280;49583;45.590;-122.498;2024-03-02T06:48:21;98879.40;;;4.71;75.20
50632;BME280;49583;45.590;-122.498;2024-03-02T06:50:55;98880.15;;;4.70;75.39
50632;BME280;49583;45.590;-122.498;2024-03-02T06:53:22;98878.57;;;4.69;75.68
50632;BME280;49583;45.590;-122.498;2024-03-02T06:55:35;98877.33;;;4.69;75.78
50632;BME280;49583;45.590;-122.498;2024-03-02T06:58:08;98889.41;;;4.68;75.84
50632;BME280;49583;45.590;-122.498;2024-03-02T07:00:21;98886.05;;;4.67;76.24
50632;BME280;49583;45.590;-122.498;2024-03-02T07:02:37;98883.65;;;4.67;76.54
50632;BME280;49583;45.590;-122.498;2024-03-02T07:04:51;98876.42;;;4.66;76.91
50632;BME280;49583;45.590;-122.498;2024-03-02T07:07:25;98873.91;;;4.63;77.03
50632;BME280;49583;45.590;-122.498;2024-03-02T07:09:42;98871.28;;;4.62;77.12
50632;BME280;49583;45.590;-122.498;2024-03-02T07:11:54;98867.50;;;4.63;77.33
50632;BME280;49583;45.590;-122.498;2024-03-02T07:14:26;98866.55;;;4.63;77.38
50632;BME280;49583;45.590;-122.498;2024-03-02T07:17:19;98869.64;;;4.62;77.75
50632;BME280;49583;45.590;-122.498;2024-03-02T07:19:51;98868.38;;;4.60;77.79
50632;BME280;49583;45.590;-122.498;2024-03-02T07:22:24;98871.48;;;4.61;78.12
50632;BME280;49583;45.590;-122.498;2024-03-02T07:24:41;98863.09;;;4.60;78.13
50632;BME280;49583;45.590;-122.498;2024-03-02T07:27:14;98870.57;;;4.62;78.17
50632;BME280;49583;45.590;-122.498;2024-03-02T07:29:33;98862.08;;;4.63;78.42
50632;BME280;49583;45.590;-122.498;2024-03-02T07:32:08;98867.20;;;4.64;78.46
50632;BME280;49583;45.590;-122.498;2024-03-02T07:34:31;98856.45;;;4.60;78.50
50632;BME280;49583;45.590;-122.498;2024-03-02T07:37:05;98858.50;;;4.63;78.59
50632;BME280;49583;45.590;-122.498;2024-03-02T07:39:21;98848.68;;;4.63;78.62
50632;BME280;49583;45.590;-122.498;2024-03-02T07:41:54;98852.39;;;4.63;78.42
50632;BME280;49583;45.590;-122.498;2024-03-02T07:44:28;98852.48;;;4.59;78.75
50632;BME280;49583;45.590;-122.498;2024-03-02T07:46:45;98858.71;;;4.58;78.81
50632;BME280;49583;45.590;-122.498;2024-03-02T07:49:20;98863.44;;;4.57;78.94
50632;BME280;49583;45.590;-122.498;2024-03-02T07:51:33;98870.71;;;4.57;79.01
50632;BME280;49583;45.590;-122.498;2024-03-02T07:53:59;98876.67;;;4.57;78.94
50632;BME280;49583;45.590;-122.498;2024-03-02T07:56:11;98884.05;;;4.58;78.91
50632;BME280;49583;45.590;-122.498;2024-03-02T07:58:36;98888.56;;;4.59;79.05
50632;BME280;49583;45.590;-122.498;2024-03-02T08:01:10;98894.02;;;4.61;78.97
50632;BME280;49583;45.590;-122.498;2024-03-02T08:03:25;98896.09;;;4.64;79.01
50632;BME280;49583;45.590;-122.498;2024-03-02T08:05:58;98904.84;;;4.65;78.93
50632;BME280;49583;45.590;-122.498;2024-03-02T08:08:15;98906.88;;;4.67;79.19
50632;BME280;49583;45.590;-122.498;2024-03-02T08:10:34;98901.16;;;4.68;79.20
50632;BME280;49583;45.590;-122.498;2024-03-02T08:13:07;98908.34;;;4.70;79.27
50632;BME280;49583;45.590;-122.498;2024-03-02T08:15:20;98913.88;;;4.72;79.20
50632;BME280;49583;45.590;-122.498;2024-03-02T08:17:36;98912.10;;;4.73;79.46
50632;BME280;49583;45.590;-122.498;2024-03-02T08:19:58;98912.23;;;4.76;79.55
50632;BME280;49583;45.590;-122.498;2024-03-02T08:22:11;98906.38;;;4.78;79.56
50632;BME280;49583;45.590;-122.498;2024-03-02T08:24:26;98904.09;;;4.80;79.66
50632;BME280;49583;45.590;-122.498;2024-03-02T08:26:39;98902.32;;;4.82;79.57
50632;BME280;49583;45.590;-122.498;2024-03-02T08:29:05;98911.00;;;4.82;79.47
50632;BME280;49583;45.590;-122.498;2024-03-02T08:31:18;98913.57;;;4.82;79.39
50632;BME280;49583;45.590;-122.498;2024-03-02T08:33:37;98910.40;;;4.83;79.17
50632;BME280;49583;45.590;-122.498;2024-03-02T08:36:11;98915.15;;;4.84;79.12
50632;BME280;49583;45.590;-122.498;2024-03-02T08:38:44;98917.04;;;4.85;79.38
50632;BME280;49583;45.590;-122.498;2024-03-02T08:40:56;98921.13;;;4.85;79.06
50632;BME280;49583;45.590;-122.498;2024-03-02T08:43:10;98929.44;;;4.82;79.02
50632;BME280;49583;45.590;-122.498;2024-03-02T08:45:23;98935.11;;;4.78;78.96
50632;BME280;49583;45.590;-122.498;2024-03-02T08:47:39;98933.11;;;4.73;78.60
50632;BME280;49583;45.590;-122.498;2024-03-02T08:49:52;98929.92;;;4.73;78.83
50632;BME280;49583;45.590;-122.498;2024-03-02T08:52:09;98933.16;;;4.72;78.78
50632;BME280;49583;45.590;-122.498;2024-03-02T08:54:23;98942.98;;;4.70;78.66
50632;BME280;49583;45.590;-122.498;2024-03-02T08:56:40;98941.14;;;4.68;78.69
50632;BME280;49583;45.590;-122.498;2024-03-02T08:58:52;98938.85;;;4.64;78.61
50632;BME280;49583;45.590;-122.498;2024-03-02T09:01:05;98928.20;;;4.62;78.47
50632;BME280;49583;45.590;-122.498;2024-03-02T09:03:21;98926.30;;;4.60;78.22
50632;BME280;49583;45.590;-122.498;2024-03-02T09:05:33;98927.35;;;4.59;78.31
50632;BME280;49583;45.590;-122.498;2024-03-02T09:07:55;98928.10;;;4.56;78.41
50632;BME280;49583;45.590;-122.498;2024-03-02T09:10:10;98930.08;;;4.54;78.56
50632;BME280;49583;45.590;-122.498;2024-03-02T09:12:26;98937.57;;;4.53;78.49
50632;BME280;49583;45.590;-122.498;2024-03-02T09:14:48;98932.23;;;4.50;78.04
50632;BME280;49583;45.590;-122.498;2024-03-02T09:17:12;98935.39;;;4.48;78.18
50632;BME280;49583;45.590;-122.498;2024-03-02T09:19:25;98938.80;;;4.44;78.15
50632;BME280;49583;45.590;-122.498;2024-03-02T09:21:37;98944.77;;;4.45;77.91
50632;BME280;49583;45.590;-122.498;2024-03-02T09:23:50;98945.98;;;4.43;78.37
50632;BME280;49583;45.590;-122.498;2024-03-02T09:26:13;98942.61;;;4.41;78.33
50632;BME280;49583;45.590;-122.498;2024-03-02T09:28:36;98947.64;;;4.40;78.28
50632;BME280;49583;45.590;-122.498;2024-03-02T09:30:51;98950.23;;;4.38;78.27
50632;BME280;49583;45.590;-122.498;2024-03-02T09:33:09;98955.13;;;4.36;78.15
50632;BME280;49583;45.590;-122.498;2024-03-02T09:35:28;98950.52;;;4.34;78.40
50632;BME280;49583;45.590;-122.498;2024-03-02T09:38:00;98959.81;;;4.32;78.46
50632;BME280;49583;45.590;-122.498;2024-03-02T09:40:15;98961.96;;;4.32;78.43
50632;BME280;49583;45.590;-122.498;2024-03-02T09:42:28;98960.84;;;4.30;78.26
50632;BME280;49583;45.590;-122.498;2024-03-02T09:44:50;98961.46;;;4.30;78.35
50632;BME280;49583;45.590;-122.498;2024-03-02T09:47:07;98956.66;;;4.30;78.23
50632;BME280;49583;45.590;-122.498;2024-03-02T09:49:20;98957.80;;;4.30;78.57
50632;BME280;49583;45.590;-122.498;2024-03-02T09:51:33;98956.80;;;4.30;78.41
50632;BME280;49583;45.590;-122.498;2024-03-02T09:53:46;98957.27;;;4.29;78.36
50632;BME280;49583;45.590;-122.498;2024-03-02T09:56:00;98962.10;;;4.27;78.16
50632;BME280;49583;45.590;-122.498;2024-03-02T09:58:13;98958.15;;;4.27;78.34
50632;BME280;49583;45.590;-122.498;2024-03-02T10:00:36;98962.01;;;4.27;78.49
50632;BME280;49583;45.590;-122.498;2024-03-02T10:02:49;98965.64;;;4.26;78.49
50632;BME280;49583;45.590;-122.498;2024-03-02T10:05:02;98962.38;;;4.26;78.41
50632;BME280;49583;45.590;-122.498;2024-03-02T10:07:18;98964.41;;;4.26;78.52
50632;BME280;49583;45.590;-122.498;2024-03-02T10:09:34;98964.27;;;4.27;78.24
50632;BME280;49583;45.590;-122.498;2024-03-02T10:11:50;98971.27;;;4.29;78.54
50632;BME280;49583;45.590;-122.498;2024-03-02T10:14:14;98967.01;;;4.29;78.25
50632;BME280;49583;45.590;-122.498;2024-03-02T10:16:30;98967.72;;;4.30;78.54
50632;BME280;49583;45.590;-122.498;2024-03-02T10:18:42;98970.53;;;4.31;78.47
50632;BME280;49583;45.590;-122.498;2024-03-02T10:21:14;98969.80;;;4.29;78.55
50632;BME280;49583;45.590;-122.498;2024-03-02T10:23:47;98973.23;;;4.26;78.77
50632;BME280;49583;45.590;-122.498;2024-03-02T10:26:00;98974.92;;;4.25;78.81
50632;BME280;49583;45.590;-122.498;2024-03-02T10:28:13;98974.17;;;4.22;79.00
50632;BME280;49583;45.590;-122.498;2024-03-02T10:30:26;98973.65;;;4.19;78.65
50632;BME280;49583;45.590;-122.498;2024-03-02T10:32:40;98975.13;;;4.15;78.70
50632;BME280;49583;45.590;-122.498;2024-03-02T10:35:01;98969.39;;;4.12;78.58
50632;BME280;49583;45.590;-122.498;2024-03-02T10:37:34;98975.17;;;4.10;78.72
50632;BME280;49583;45.590;-122.498;2024-03-02T10:39:48;98974.60;;;4.09;78.78
50632;BME280;49583;45.590;-122.498;2024-03-02T10:42:08;98982.80;;;4.08;78.62
50632;BME280;49583;45.590;-122.498;2024-03-02T10:44:21;98985.65;;;4.08;78.77
50632;BME280;49583;45.590;-122.498;2024-03-02T10:46:54;98989.91;;;4.05;78.45
50632;BME280;49583;45.590;-122.498;2024-03-02T10:49:17;98994.59;;;4.02;78.39
50632;BME280;49583;45.590;-122.498;2024-03-02T10:51:50;98989.39;;;3.98;78.26
50632;BME280;49583;45.590;-122.498;2024-03-02T10:54:23;98995.52;;;3.94;78.31
50632;BME280;49583;45.590;-122.498;2024-03-02T10:56:42;98986.40;;;3.91;78.18
50632;BME280;49583;45.590;-122.498;2024-03-02T10:59:10;98982.00;;;3.88;78.42
50632;BME280;49583;45.590;-122.498;2024-03-02T11:01:49;98974.20;;;3.85;78.45
50632;BME280;49583;45.590;-122.498;2024-03-02T11:04:04;98972.50;;;3.81;78.77
50632;BME280;49583;45.590;-122.498;2024-03-02T11:06:20;98986.34;;;3.78;78.91
50632;BME280;49583;45.590;-122.498;2024-03-02T11:08:55;98971.72;;;3.71;78.85
50632;BME280;49583;45.590;-122.498;2024-03-02T11:11:18;98969.15;;;3.69;78.83
50632;BME280;49583;45.590;-122.498;2024-03-02T11:13:39;98970.88;;;3.67;79.08
50632;BME280;49583;45.590;-122.498;2024-03-02T11:15:56;98976.78;;;3.65;79.18
50632;BME280;49583;45.590;-122.498;2024-03-02T11:18:33;98974.98;;;3.63;79.00
50632;BME280;49583;45.590;-122.498;2024-03-02T11:20:52;98978.30;;;3.63;79.33
50632;BME280;49583;45.590;-122.498;2024-03-02T11:23:09;98980.40;;;3.64;79.27
50632;BME280;49583;45.590;-122.498;2024-03-02T11:25:31;98995.10;;;3.65;79.47
50632;BME280;49583;45.590;-122.498;2024-03-02T11:28:09;99002.45;;;3.64;79.58
50632;BME280;49583;45.590;-122.498;2024-03-02T11:30:51;99004.98;;;3.64;79.47
50632;BME280;49583;45.590;-122.498;2024-03-02T11:33:07;99008.61;;;3.67;79.50
50632;BME280;49583;45.590;-122.498;2024-03-02T11:35:21;99011.67;;;3.68;79.52
50632;BME280;49583;45.590;-122.498;2024-03-02T11:37:37;99018.17;;;3.69;79.78
50632;BME280;49583;45.590;-122.498;2024-03-02T11:39:52;99017.02;;;3.69;79.72
50632;BME280;49583;45.590;-122.498;2024-03-02T11:42:05;99020.42;;;3.69;79.50
50632;BME280;49583;45.590;-122.498;2024-03-02T11:44:30;99021.36;;;3.69;79.62
50632;BME280;49583;45.590;-122.498;2024-03-02T11:47:15;99028.85;;;3.69;79.79
50632;BME280;49583;45.590;-122.498;2024-03-02T11:49:43;99032.10;;;3.69;79.78
50632;BME280;49583;45.590;-122.498;2024-03-02T11:52:03;99033.30;;;3.68;79.86
50632;BME280;49583;45.590;-122.498;2024-03-02T11:54:20;99033.83;;;3.67;79.99
50632;BME280;49583;45.590;-122.498;2024-03-02T11:56:34;99034.40;;;3.65;79.73
50632;BME280;49583;45.590;-122.498;2024-03-02T11:58:58;99040.42;;;3.65;80.00
50632;BME280;49583;45.590;-122.498;2024-03-02T12:01:24;99038.56;;;3.64;79.74
50632;BME280;49583;45.590;-122.498;2024-03-02T12:03:57;99049.31;;;3.65;80.07
50632;BME280;49583;45.590;-122.498;2024-03-02T12:06:31;99047.73;;;3.62;79.94